sensor_id;sensor_type;location;lat;lon;timestamp;temperature;humidity
7028;DHT22;3555;53.248;10.336;2023-04-07T00:00:14;5.70;99.90
7028;DHT22;3555;53.248;10.336;2023-04-07T00:02:42;5.60;99.90
7028;DHT22;3555;53.248;10.336;2023-04-07T00:05:10;5.60;99.90
7028;DHT22;3555;53.248;10.336;2023-04-07T00:07:36;5.60;99.90
7028;DHT22;3555;53.248;10.336;2023-04-07T00:10:06;5.50;99.90
7028;DHT22;3555;53.248;10.336;2023-04-07T00:12:33;5.60;99.90
7028;DHT22;3555;53.248;10.336;2023-04-07T00:15:00;5.60;99.90
7028;DHT22;3555;53.248;10.336;2023-04-07T00:17:27;5.50;99.90
7028;DHT22;3555;53.248;10.336;2023-04-07T00:19:54;5.40;99.90
7028;DHT22;3555;53.248;10.336;2023-04-07T00:22:21;5.30;99.90
7028;DHT22;3555;53.248;10.336;2023-04-07T00:24:48;5.30;99.90
7028;DHT22;3555;53.248;10.336;2023-04-07T00:27:16;5.30;99.90
7028;DHT22;3555;53.248;10.336;2023-04-07T00:29:43;5.30;99.90
7028;DHT22;3555;53.248;10.336;2023-04-07T00:32:11;5.30;99.90
7028;DHT22;3555;53.248;10.336;2023-04-07T00:34:38;5.30;99.90
7028;DHT22;3555;53.248;10.336;2023-04-07T00:37:05;5.20;99.90
7028;DHT22;3555;53.248;10.336;2023-04-07T00:39:31;5.30;99.90
7028;DHT22;3555;53.248;10.336;2023-04-07T00:41:58;5.20;99.90
7028;DHT22;3555;53.248;10.336;2023-04-07T00:44:27;5.20;99.90
7028;DHT22;3555;53.248;10.336;2023-04-07T00:46:54;5.20;99.90
7028;DHT22;3555;53.248;10.336;2023-04-07T00:49:21;5.20;99.90
7028;DHT22;3555;53.248;10.336;2023-04-07T00:51:48;5.20;99.90
7028;DHT22;3555;53.248;10.336;2023-04-07T00:54:15;5.00;1.00
7028;DHT22;3555;53.248;10.336;2023-04-07T00:56:42;5.00;1.00
7028;DHT22;3555;53.248;10.336;2023-04-07T00:59:09;4.90;1.00
7028;DHT22;3555;53.248;10.336;2023-04-07T01:01:43;5.10;1.00
7028;DHT22;3555;53.248;10.336;2023-04-07T01:04:14;5.00;1.00
7028;DHT22;3555;53.248;10.336;2023-04-07T01:06:47;5.10;1.00
7028;DHT22;3555;53.248;10.336;2023-04-07T01:09:18;4.90;1.00
7028;DHT22;3555;53.248;10.336;2023-04-07T01:11:51;5.00;1.00
7028;DHT22;3555;53.248;10.336;2023-04-07T01:14:21;5.00;1.00
7028;DHT22;3555;53.248;10.336;2023-04-07T01:16:51;5.00;1.00
7028;DHT22;3555;53.248;10.336;2023-04-07T01:19:31;5.10;1.00
7028;DHT22;3555;53.248;10.336;2023-04-07T01:21:59;4.90;1.00
7028;DHT22;3555;53.248;10.336;2023-04-07T01:24:42;4.90;1.00
7028;DHT22;3555;53.248;10.336;2023-04-07T01:27:18;4.80;1.00
7028;DHT22;3555;53.248;10.336;2023-04-07T01:29:49;4.90;1.00
7028;DHT22;3555;53.248;10.336;2023-04-07T01:32:17;4.80;1.00
7028;DHT22;3555;53.248;10.336;2023-04-07T01:34:47;4.80;1.00
7028;DHT22;3555;53.248;10.336;2023-04-07T01:37:15;4.70;1.00
7028;DHT22;3555;53.248;10.336;2023-04-07T01:39:43;4.70;1.00
7028;DHT22;3555;53.248;10.336;2023-04-07T01:42:10;4.70;1.00
7028;DHT22;3555;53.248;10.336;2023-04-07T01:44:38;4.70;1.00
7028;DHT22;3555;53.248;10.336;2023-04-07T01:47:07;4.70;1.00
7028;DHT22;3555;53.248;10.336;2023-04-07T01:49:35;4.70;1.00
7028;DHT22;3555;53.248;10.336;2023-04-07T01:52:04;4.70;1.00
7028;DHT22;3555;53.248;10.336;2023-04-07T01:54:31;4.70;1.00
7028;DHT22;3555;53.248;10.336;2023-04-07T01:56:58;4.60;1.00
7028;DHT22;3555;53.248;10.336;2023-04-07T01:59:26;4.50;1.00
7028;DHT22;3555;53.248;10.336;2023-04-07T02:01:53;4.50;1.00
7028;DHT22;3555;53.248;10.336;2023-04-07T02:04:27;4.50;1.00
7028;DHT22;3555;53.248;10.336;2023-04-07T02:06:59;4.50;1.00
7028;DHT22;3555;53.248;10.336;2023-04-07T02:09:30;4.40;1.00
7028;DHT22;3555;53.248;10.336;2023-04-07T02:11:59;4.40;1.00
7028;DHT22;3555;53.248;10.336;2023-04-07T02:14:26;4.40;1.00
7028;DHT22;3555;53.248;10.336;2023-04-07T02:16:54;4.50;1.00
7028;DHT22;3555;53.248;10.336;2023-04-07T02:19:23;4.60;1.00
7028;DHT22;3555;53.248;10.336;2023-04-07T02:21:52;4.50;1.00
7028;DHT22;3555;53.248;10.336;2023-04-07T02:24:20;4.40;1.00
7028;DHT22;3555;53.248;10.336;2023-04-07T02:26:47;4.30;1.00
7028;DHT22;3555;53.248;10.336;2023-04-07T02:29:14;4.30;1.00
7028;DHT22;3555;53.248;10.336;2023-04-07T02:31:41;4.30;1.00
7028;DHT22;3555;53.248;10.336;2023-04-07T02:34:08;4.20;1.00
7028;DHT22;3555;53.248;10.336;2023-04-07T02:36:36;4.10;1.00
7028;DHT22;3555;53.248;10.336;2023-04-07T02:39:03;4.10;1.00
7028;DHT22;3555;53.248;10.336;2023-04-07T02:41:30;4.10;1.00
7028;DHT22;3555;53.248;10.336;2023-04-07T02:43:57;4.20;1.00
7028;DHT22;3555;53.248;10.336;2023-04-07T02:46:24;4.40;1.00
7028;DHT22;3555;53.248;10.336;2023-04-07T02:48:50;4.30;1.00
7028;DHT22;3555;53.248;10.336;2023-04-07T02:51:17;4.30;1.00
7028;DHT22;3555;53.248;10.336;2023-04-07T02:53:46;4.40;1.00
7028;DHT22;3555;53.248;10.336;2023-04-07T02:56:13;4.40;1.00
7028;DHT22;3555;53.248;10.336;2023-04-07T02:58:40;4.40;1.00
7028;DHT22;3555;53.248;10.336;2023-04-07T03:01:07;4.40;1.00
7028;DHT22;3555;53.248;10.336;2023-04-07T03:03:34;4.30;1.00
7028;DHT22;3555;53.248;10.336;2023-04-07T03:06:01;4.30;1.00
7028;DHT22;3555;53.248;10.336;2023-04-07T03:08:28;4.20;1.00
7028;DHT22;3555;53.248;10.336;2023-04-07T03:10:56;4.20;1.00
7028;DHT22;3555;53.248;10.336;2023-04-07T03:13:23;4.10;1.00
7028;DHT22;3555;53.248;10.336;2023-04-07T03:15:50;4.10;1.00
7028;DHT22;3555;53.248;10.336;2023-04-07T03:18:17;4.00;1.00
7028;DHT22;3555;53.248;10.336;2023-04-07T03:20:44;4.00;1.00
7028;DHT22;3555;53.248;10.336;2023-04-07T03:23:12;4.10;1.00
7028;DHT22;3555;53.248;10.336;2023-04-07T03:25:39;4.20;1.00
7028;DHT22;3555;53.248;10.336;2023-04-07T03:28:07;4.20;1.00
7028;DHT22;3555;53.248;10.336;2023-04-07T03:30:35;4.30;1.00
7028;DHT22;3555;53.248;10.336;2023-04-07T03:33:02;4.30;1.00
7028;DHT22;3555;53.248;10.336;2023-04-07T03:35:29;4.40;1.00
7028;DHT22;3555;53.248;10.336;2023-04-07T03:37:56;4.60;1.00
7028;DHT22;3555;53.248;10.336;2023-04-07T03:40:23;4.60;99.90
7028;DHT22;3555;53.248;10.336;2023-04-07T03:42:50;4.70;99.90
7028;DHT22;3555;53.248;10.336;2023-04-07T03:45:18;5.00;99.90
7028;DHT22;3555;53.248;10.336;2023-04-07T03:47:45;4.90;99.90
7028;DHT22;3555;53.248;10.336;2023-04-07T03:50:12;5.00;99.90
7028;DHT22;3555;53.248;10.336;2023-04-07T03:52:39;5.00;99.90
7028;DHT22;3555;53.248;10.336;2023-04-07T03:55:07;5.00;99.90
7028;DHT22;3555;53.248;10.336;2023-04-07T03:57:34;4.80;99.90
7028;DHT22;3555;53.248;10.336;2023-04-07T04:00:01;4.60;99.90
7028;DHT22;3555;53.248;10.336;2023-04-07T04:02:29;4.60;99.90
7028;DHT22;3555;53.248;10.336;2023-04-07T04:04:56;4.70;99.90
7028;DHT22;3555;53.248;10.336;2023-04-07T04:07:23;4.60;99.90
7028;DHT22;3555;53.248;10.336;2023-04-07T04:09:51;4.50;99.90
7028;DHT22;3555;53.248;10.336;2023-04-07T04:12:18;4.60;99.90
7028;DHT22;3555;53.248;10.336;2023-04-07T04:14:45;4.70;99.90
7028;DHT22;3555;53.248;10.336;2023-04-07T04:17:12;4.70;99.90
7028;DHT22;3555;53.248;10.336;2023-04-07T04:19:40;4.80;99.90
7028;DHT22;3555;53.248;10.336;2023-04-07T04:22:07;4.60;99.90
7028;DHT22;3555;53.248;10.336;2023-04-07T04:24:34;4.60;99.90
7028;DHT22;3555;53.248;10.336;2023-04-07T04:27:01;4.20;1.00
7028;DHT22;3555;53.248;10.336;2023-04-07T04:29:28;4.10;1.00
7028;DHT22;3555;53.248;10.336;2023-04-07T04:31:55;4.10;1.00
7028;DHT22;3555;53.248;10.336;2023-04-07T04:34:22;4.10;1.00
7028;DHT22;3555;53.248;10.336;2023-04-07T04:36:50;4.10;1.00
7028;DHT22;3555;53.248;10.336;2023-04-07T04:39:17;4.20;1.00
7028;DHT22;3555;53.248;10.336;2023-04-07T04:41:44;4.20;1.00
7028;DHT22;3555;53.248;10.336;2023-04-07T04:44:11;4.00;1.00
7028;DHT22;3555;53.248;10.336;2023-04-07T04:46:38;3.90;1.00
7028;DHT22;3555;53.248;10.336;2023-04-07T04:49:05;3.90;1.00
7028;DHT22;3555;53.248;10.336;2023-04-07T04:51:31;3.90;1.00
7028;DHT22;3555;53.248;10.336;2023-04-07T04:54:00;3.70;1.00
7028;DHT22;3555;53.248;10.336;2023-04-07T04:56:28;3.60;1.00
7028;DHT22;3555;53.248;10.336;2023-04-07T04:58:55;3.30;1.00
7028;DHT22;3555;53.248;10.336;2023-04-07T05:01:22;3.20;1.00
7028;DHT22;3555;53.248;10.336;2023-04-07T05:03:48;3.10;1.00
7028;DHT22;3555;53.248;10.336;2023-04-07T05:06:16;3.10;1.00
7028;DHT22;3555;53.248;10.336;2023-04-07T05:08:42;3.00;1.00
7028;DHT22;3555;53.248;10.336;2023-04-07T05:11:11;3.00;1.00
7028;DHT22;3555;53.248;10.336;2023-04-07T05:13:38;3.00;1.00
7028;DHT22;3555;53.248;10.336;2023-04-07T05:16:06;3.10;1.00
7028;DHT22;3555;53.248;10.336;2023-04-07T05:18:33;3.10;1.00
7028;DHT22;3555;53.248;10.336;2023-04-07T05:21:00;3.20;1.00
7028;DHT22;3555;53.248;10.336;2023-04-07T05:23:27;3.40;1.00
7028;DHT22;3555;53.248;10.336;2023-04-07T05:25:54;3.40;1.00
7028;DHT22;3555;53.248;10.336;2023-04-07T05:28:22;3.60;1.00
7028;DHT22;3555;53.248;10.336;2023-04-07T05:30:50;3.80;1.00
7028;DHT22;3555;53.248;10.336;2023-04-07T05:33:17;3.90;1.00
7028;DHT22;3555;53.248;10.336;2023-04-07T05:35:43;4.00;1.00
7028;DHT22;3555;53.248;10.336;2023-04-07T05:38:11;4.10;1.00
7028;DHT22;3555;53.248;10.336;2023-04-07T05:40:38;4.30;1.00
7028;DHT22;3555;53.248;10.336;2023-04-07T05:43:05;4.50;1.00
7028;DHT22;3555;53.248;10.336;2023-04-07T05:45:33;4.80;1.00
7028;DHT22;3555;53.248;10.336;2023-04-07T05:48:00;4.90;1.00
7028;DHT22;3555;53.248;10.336;2023-04-07T05:50:27;5.20;1.00
7028;DHT22;3555;53.248;10.336;2023-04-07T05:52:55;5.50;1.00
7028;DHT22;3555;53.248;10.336;2023-04-07T05:55:22;5.80;99.90
7028;DHT22;3555;53.248;10.336;2023-04-07T05:57:49;6.10;99.90
7028;DHT22;3555;53.248;10.336;2023-04-07T06:00:16;6.40;99.90
7028;DHT22;3555;53.248;10.336;2023-04-07T06:02:45;6.60;99.90
7028;DHT22;3555;53.248;10.336;2023-04-07T06:05:12;7.00;99.90
7028;DHT22;3555;53.248;10.336;2023-04-07T06:07:39;7.20;99.90
7028;DHT22;3555;53.248;10.336;2023-04-07T06:10:07;7.40;19.80
7028;DHT22;3555;53.248;10.336;2023-04-07T06:12:34;7.70;1.00
7028;DHT22;3555;53.248;10.336;2023-04-07T06:15:01;7.90;1.00
7028;DHT22;3555;53.248;10.336;2023-04-07T06:17:28;7.90;1.00
7028;DHT22;3555;53.248;10.336;2023-04-07T06:19:57;7.70;1.00
7028;DHT22;3555;53.248;10.336;2023-04-07T06:22:23;7.90;1.00
7028;DHT22;3555;53.248;10.336;2023-04-07T06:24:50;8.20;1.00
7028;DHT22;3555;53.248;10.336;2023-04-07T06:27:17;8.20;1.00
7028;DHT22;3555;53.248;10.336;2023-04-07T06:29:44;8.00;1.00
7028;DHT22;3555;53.248;10.336;2023-04-07T06:32:11;8.10;1.00
7028;DHT22;3555;53.248;10.336;2023-04-07T06:34:38;8.20;1.00
7028;DHT22;3555;53.248;10.336;2023-04-07T06:37:06;8.50;1.00
7028;DHT22;3555;53.248;10.336;2023-04-07T06:39:33;8.80;1.00
7028;DHT22;3555;53.248;10.336;2023-04-07T06:42:00;8.80;1.00
7028;DHT22;3555;53.248;10.336;2023-04-07T06:44:27;9.00;1.00
7028;DHT22;3555;53.248;10.336;2023-04-07T06:46:54;9.00;1.00
7028;DHT22;3555;53.248;10.336;2023-04-07T06:49:21;8.90;1.00
7028;DHT22;3555;53.248;10.336;2023-04-07T06:51:48;9.10;1.00
7028;DHT22;3555;53.248;10.336;2023-04-07T06:54:16;9.20;1.00
7028;DHT22;3555;53.248;10.336;2023-04-07T06:56:43;9.40;1.00
7028;DHT22;3555;53.248;10.336;2023-04-07T06:59:10;9.50;1.00
7028;DHT22;3555;53.248;10.336;2023-04-07T07:01:37;9.80;1.00
7028;DHT22;3555;53.248;10.336;2023-04-07T07:04:04;9.70;1.00
7028;DHT22;3555;53.248;10.336;2023-04-07T07:06:31;10.00;1.00
7028;DHT22;3555;53.248;10.336;2023-04-07T07:08:58;10.20;1.00
7028;DHT22;3555;53.248;10.336;2023-04-07T07:11:26;10.60;1.00
7028;DHT22;3555;53.248;10.336;2023-04-07T07:13:53;10.70;1.00
7028;DHT22;3555;53.248;10.336;2023-04-07T07:16:20;10.80;1.00
7028;DHT22;3555;53.248;10.336;2023-04-07T07:18:49;10.70;1.00
7028;DHT22;3555;53.248;10.336;2023-04-07T07:21:16;11.00;1.00
7028;DHT22;3555;53.248;10.336;2023-04-07T07:23:43;11.20;1.00
7028;DHT22;3555;53.248;10.336;2023-04-07T07:26:10;10.90;1.00
7028;DHT22;3555;53.248;10.336;2023-04-07T07:28:38;10.70;1.00
7028;DHT22;3555;53.248;10.336;2023-04-07T07:31:09;11.00;1.00
7028;DHT22;3555;53.248;10.336;2023-04-07T07:33:38;10.90;1.00
7028;DHT22;3555;53.248;10.336;2023-04-07T07:36:06;11.10;1.00
7028;DHT22;3555;53.248;10.336;2023-04-07T07:38:33;11.10;1.00
7028;DHT22;3555;53.248;10.336;2023-04-07T07:41:00;11.10;1.00
7028;DHT22;3555;53.248;10.336;2023-04-07T07:43:27;10.90;1.00
7028;DHT22;3555;53.248;10.336;2023-04-07T07:45:56;11.00;1.00
7028;DHT22;3555;53.248;10.336;2023-04-07T07:48:23;11.00;1.00
7028;DHT22;3555;53.248;10.336;2023-04-07T07:50:50;11.20;1.00
7028;DHT22;3555;53.248;10.336;2023-04-07T07:53:17;11.20;1.00
7028;DHT22;3555;53.248;10.336;2023-04-07T07:55:44;11.20;1.00
7028;DHT22;3555;53.248;10.336;2023-04-07T07:58:11;11.40;1.00
7028;DHT22;3555;53.248;10.336;2023-04-07T08:00:38;11.80;1.00
7028;DHT22;3555;53.248;10.336;2023-04-07T08:03:07;12.20;1.00
7028;DHT22;3555;53.248;10.336;2023-04-07T08:05:33;12.30;1.00
7028;DHT22;3555;53.248;10.336;2023-04-07T08:08:00;12.20;1.00
7028;DHT22;3555;53.248;10.336;2023-04-07T08:10:27;12.20;1.00
7028;DHT22;3555;53.248;10.336;2023-04-07T08:12:54;12.10;1.00
7028;DHT22;3555;53.248;10.336;2023-04-07T08:15:21;12.00;1.00
7028;DHT22;3555;53.248;10.336;2023-04-07T08:17:48;12.20;1.00
7028;DHT22;3555;53.248;10.336;2023-04-07T08:20:16;12.00;1.00
7028;DHT22;3555;53.248;10.336;2023-04-07T08:22:43;11.90;1.00
7028;DHT22;3555;53.248;10.336;2023-04-07T08:25:10;12.20;1.00
7028;DHT22;3555;53.248;10.336;2023-04-07T08:27:37;11.80;1.00
7028;DHT22;3555;53.248;10.336;2023-04-07T08:30:05;12.00;1.00
7028;DHT22;3555;53.248;10.336;2023-04-07T08:32:36;12.40;1.00
7028;DHT22;3555;53.248;10.336;2023-04-07T08:35:04;12.70;1.00
7028;DHT22;3555;53.248;10.336;2023-04-07T08:37:33;12.60;1.00
7028;DHT22;3555;53.248;10.336;2023-04-07T08:40:01;12.30;1.00
7028;DHT22;3555;53.248;10.336;2023-04-07T08:42:30;12.00;1.00
7028;DHT22;3555;53.248;10.336;2023-04-07T08:45:01;12.50;1.00
7028;DHT22;3555;53.248;10.336;2023-04-07T08:47:31;12.50;1.00
7028;DHT22;3555;53.248;10.336;2023-04-07T08:50:00;12.50;1.00
7028;DHT22;3555;53.248;10.336;2023-04-07T08:52:33;12.40;1.00
7028;DHT22;3555;53.248;10.336;2023-04-07T08:55:03;12.40;1.00
7028;DHT22;3555;53.248;10.336;2023-04-07T08:57:32;12.70;1.00
7028;DHT22;3555;53.248;10.336;2023-04-07T09:00:00;13.00;1.00
7028;DHT22;3555;53.248;10.336;2023-04-07T09:02:31;13.10;1.00
7028;DHT22;3555;53.248;10.336;2023-04-07T09:04:58;13.00;1.00
7028;DHT22;3555;53.248;10.336;2023-04-07T09:07:26;12.60;1.00
7028;DHT22;3555;53.248;10.336;2023-04-07T09:09:54;12.60;1.00
7028;DHT22;3555;53.248;10.336;2023-04-07T09:12:21;12.80;1.00
7028;DHT22;3555;53.248;10.336;2023-04-07T09:14:48;13.00;1.00
7028;DHT22;3555;53.248;10.336;2023-04-07T09:17:15;13.00;1.00
7028;DHT22;3555;53.248;10.336;2023-04-07T09:19:42;13.00;1.00
7028;DHT22;3555;53.248;10.336;2023-04-07T09:22:09;13.20;1.00
7028;DHT22;3555;53.248;10.336;2023-04-07T09:24:39;13.70;1.00
7028;DHT22;3555;53.248;10.336;2023-04-07T09:27:15;13.90;1.00
7028;DHT22;3555;53.248;10.336;2023-04-07T09:29:44;14.30;1.00
7028;DHT22;3555;53.248;10.336;2023-04-07T09:32:12;14.30;1.00
7028;DHT22;3555;53.248;10.336;2023-04-07T09:34:57;14.30;1.00
7028;DHT22;3555;53.248;10.336;2023-04-07T09:37:24;13.80;1.00
7028;DHT22;3555;53.248;10.336;2023-04-07T09:39:52;13.70;1.00
7028;DHT22;3555;53.248;10.336;2023-04-07T09:42:20;13.90;1.00
7028;DHT22;3555;53.248;10.336;2023-04-07T09:44:47;13.70;1.00
7028;DHT22;3555;53.248;10.336;2023-04-07T09:47:14;13.70;1.00
7028;DHT22;3555;53.248;10.336;2023-04-07T09:49:49;13.70;1.00
7028;DHT22;3555;53.248;10.336;2023-04-07T09:52:18;13.30;1.00
7028;DHT22;3555;53.248;10.336;2023-04-07T09:54:47;13.60;1.00
7028;DHT22;3555;53.248;10.336;2023-04-07T09:57:14;13.30;1.00
7028;DHT22;3555;53.248;10.336;2023-04-07T09:59:44;13.20;1.00
7028;DHT22;3555;53.248;10.336;2023-04-07T10:02:11;13.30;1.00
7028;DHT22;3555;53.248;10.336;2023-04-07T10:04:39;13.50;1.00
7028;DHT22;3555;53.248;10.336;2023-04-07T10:07:07;13.40;1.00
7028;DHT22;3555;53.248;10.336;2023-04-07T10:09:34;13.30;1.00
7028;DHT22;3555;53.248;10.336;2023-04-07T10:12:01;13.30;1.00
7028;DHT22;3555;53.248;10.336;2023-04-07T10:14:30;13.40;1.00
7028;DHT22;3555;53.248;10.336;2023-04-07T10:16:59;13.40;1.00
7028;DHT22;3555;53.248;10.336;2023-04-07T10:19:29;13.20;1.00
7028;DHT22;3555;53.248;10.336;2023-04-07T10:22:00;13.30;1.00
7028;DHT22;3555;53.248;10.336;2023-04-07T10:24:44;13.60;1.00
7028;DHT22;3555;53.248;10.336;2023-04-07T10:27:17;13.70;1.00
7028;DHT22;3555;53.248;10.336;2023-04-07T10:29:48;13.30;1.00
7028;DHT22;3555;53.248;10.336;2023-04-07T10:32:18;12.90;1.00
7028;DHT22;3555;53.248;10.336;2023-04-07T10:34:55;12.80;1.00
7028;DHT22;3555;53.248;10.336;2023-04-07T10:37:24;13.20;1.00
7028;DHT22;3555;53.248;10.336;2023-04-07T10:40:28;13.50;1.00
7028;DHT22;3555;53.248;10.336;2023-04-07T10:42:57;13.50;1.00
7028;DHT22;3555;53.248;10.336;2023-04-07T10:45:52;13.40;1.00
7028;DHT22;3555;53.248;10.336;2023-04-07T10:48:22;13.60;1.00
7028;DHT22;3555;53.248;10.336;2023-04-07T10:51:11;13.70;1.00
7028;DHT22;3555;53.248;10.336;2023-04-07T10:57:14;13.70;1.00
7028;DHT22;3555;53.248;10.336;2023-04-07T11:00:13;13.50;1.00
7028;DHT22;3555;53.248;10.336;2023-04-07T11:02:41;13.70;1.00
7028;DHT22;3555;53.248;10.336;2023-04-07T11:05:19;13.70;1.00
7028;DHT22;3555;53.248;10.336;2023-04-07T11:07:50;13.70;1.00
7028;DHT22;3555;53.248;10.336;2023-04-07T11:10:18;13.60;1.00
7028;DHT22;3555;53.248;10.336;2023-04-07T11:13:04;13.30;1.00
7028;DHT22;3555;53.248;10.336;2023-04-07T11:15:31;13.60;1.00
7028;DHT22;3555;53.248;10.336;2023-04-07T11:18:23;13.80;1.00
7028;DHT22;3555;53.248;10.336;2023-04-07T11:20:53;13.80;1.00
7028;DHT22;3555;53.248;10.336;2023-04-07T11:23:22;13.80;1.00
7028;DHT22;3555;53.248;10.336;2023-04-07T11:25:51;13.70;1.00
7028;DHT22;3555;53.248;10.336;2023-04-07T11:28:19;13.50;1.00
7028;DHT22;3555;53.248;10.336;2023-04-07T11:30:47;13.50;1.00
7028;DHT22;3555;53.248;10.336;2023-04-07T11:33:19;13.50;1.00
7028;DHT22;3555;53.248;10.336;2023-04-07T11:35:49;13.80;1.00
7028;DHT22;3555;53.248;10.336;2023-04-07T11:38:18;13.70;1.00
7028;DHT22;3555;53.248;10.336;2023-04-07T11:40:45;13.90;1.00
7028;DHT22;3555;53.248;10.336;2023-04-07T11:43:20;13.70;1.00
7028;DHT22;3555;53.248;10.336;2023-04-07T11:46:03;13.50;1.00
7028;DHT22;3555;53.248;10.336;2023-04-07T11:48:31;13.40;1.00
7028;DHT22;3555;53.248;10.336;2023-04-07T11:50:59;13.40;1.00
7028;DHT22;3555;53.248;10.336;2023-04-07T11:53:29;13.30;1.00
7028;DHT22;3555;53.248;10.336;2023-04-07T11:56:01;13.60;1.00
7028;DHT22;3555;53.248;10.336;2023-04-07T11:58:28;13.50;1.00
7028;DHT22;3555;53.248;10.336;2023-04-07T12:00:55;13.30;1.00
7028;DHT22;3555;53.248;10.336;2023-04-07T12:03:23;13.60;1.00
7028;DHT22;3555;53.248;10.336;2023-04-07T12:05:50;13.50;1.00
7028;DHT22;3555;53.248;10.336;2023-04-07T12:08:17;13.70;1.00
7028;DHT22;3555;53.248;10.336;2023-04-07T12:10:46;13.60;1.00
7028;DHT22;3555;53.248;10.336;2023-04-07T12:13:13;13.50;1.00
7028;DHT22;3555;53.248;10.336;2023-04-07T12:15:40;13.40;1.00
7028;DHT22;3555;53.248;10.336;2023-04-07T12:18:07;13.40;1.00
7028;DHT22;3555;53.248;10.336;2023-04-07T12:20:34;13.70;1.00
7028;DHT22;3555;53.248;10.336;2023-04-07T12:23:01;14.00;1.00
7028;DHT22;3555;53.248;10.336;2023-04-07T12:25:28;13.90;1.00
7028;DHT22;3555;53.248;10.336;2023-04-07T12:27:56;14.00;1.00
7028;DHT22;3555;53.248;10.336;2023-04-07T12:30:23;13.90;1.00
7028;DHT22;3555;53.248;10.336;2023-04-07T12:32:50;14.20;1.00
7028;DHT22;3555;53.248;10.336;2023-04-07T12:35:17;14.40;1.00
7028;DHT22;3555;53.248;10.336;2023-04-07T12:37:44;14.20;1.00
7028;DHT22;3555;53.248;10.336;2023-04-07T12:40:12;14.30;1.00
7028;DHT22;3555;53.248;10.336;2023-04-07T12:42:40;14.60;1.00
7028;DHT22;3555;53.248;10.336;2023-04-07T12:45:09;14.40;1.00
7028;DHT22;3555;53.248;10.336;2023-04-07T12:47:36;14.40;1.00
7028;DHT22;3555;53.248;10.336;2023-04-07T12:50:03;14.10;1.00
7028;DHT22;3555;53.248;10.336;2023-04-07T12:52:30;13.80;1.00
7028;DHT22;3555;53.248;10.336;2023-04-07T12:54:57;13.50;1.00
7028;DHT22;3555;53.248;10.336;2023-04-07T12:57:24;13.50;1.00
7028;DHT22;3555;53.248;10.336;2023-04-07T12:59:52;13.40;1.00
7028;DHT22;3555;53.248;10.336;2023-04-07T13:02:20;13.20;1.00
7028;DHT22;3555;53.248;10.336;2023-04-07T13:04:47;13.20;1.00
7028;DHT22;3555;53.248;10.336;2023-04-07T13:07:14;13.10;1.00
7028;DHT22;3555;53.248;10.336;2023-04-07T13:09:41;13.00;1.00
7028;DHT22;3555;53.248;10.336;2023-04-07T13:12:08;12.90;1.00
7028;DHT22;3555;53.248;10.336;2023-04-07T13:14:36;13.10;1.00
7028;DHT22;3555;53.248;10.336;2023-04-07T13:17:04;13.10;1.00
7028;DHT22;3555;53.248;10.336;2023-04-07T13:19:32;13.40;1.00
7028;DHT22;3555;53.248;10.336;2023-04-07T13:21:59;13.70;1.00
7028;DHT22;3555;53.248;10.336;2023-04-07T13:24:27;13.90;1.00
7028;DHT22;3555;53.248;10.336;2023-04-07T13:26:54;13.70;1.00
7028;DHT22;3555;53.248;10.336;2023-04-07T13:29:22;13.50;1.00
7028;DHT22;3555;53.248;10.336;2023-04-07T13:31:49;13.30;1.00
7028;DHT22;3555;53.248;10.336;2023-04-07T13:34:16;13.40;1.00
7028;DHT22;3555;53.248;10.336;2023-04-07T13:36:44;13.40;1.00
7028;DHT22;3555;53.248;10.336;2023-04-07T13:39:11;13.40;1.00
7028;DHT22;3555;53.248;10.336;2023-04-07T13:41:38;13.30;1.00
7028;DHT22;3555;53.248;10.336;2023-04-07T13:44:05;13.40;1.00
7028;DHT22;3555;53.248;10.336;2023-04-07T13:46:32;13.60;1.00
7028;DHT22;3555;53.248;10.336;2023-04-07T13:48:59;13.40;1.00
7028;DHT22;3555;53.248;10.336;2023-04-07T13:51:26;13.30;1.00
7028;DHT22;3555;53.248;10.336;2023-04-07T13:53:55;13.20;1.00
7028;DHT22;3555;53.248;10.336;2023-04-07T13:56:22;13.10;1.00
7028;DHT22;3555;53.248;10.336;2023-04-07T13:58:49;13.00;1.00
7028;DHT22;3555;53.248;10.336;2023-04-07T14:01:16;13.00;1.00
7028;DHT22;3555;53.248;10.336;2023-04-07T14:03:43;12.90;1.00
7028;DHT22;3555;53.248;10.336;2023-04-07T14:06:10;13.00;1.00
7028;DHT22;3555;53.248;10.336;2023-04-07T14:08:37;13.10;1.00
7028;DHT22;3555;53.248;10.336;2023-04-07T14:11:05;13.20;1.00
7028;DHT22;3555;53.248;10.336;2023-04-07T14:13:32;13.20;1.00
7028;DHT22;3555;53.248;10.336;2023-04-07T14:15:59;13.30;1.00
7028;DHT22;3555;53.248;10.336;2023-04-07T14:18:26;13.50;1.00
7028;DHT22;3555;53.248;10.336;2023-04-07T14:20:53;13.50;1.00
7028;DHT22;3555;53.248;10.336;2023-04-07T14:23:20;13.50;1.00
7028;DHT22;3555;53.248;10.336;2023-04-07T14:25:47;13.40;1.00
7028;DHT22;3555;53.248;10.336;2023-04-07T14:28:15;13.20;1.00
7028;DHT22;3555;53.248;10.336;2023-04-07T14:30:42;13.20;1.00
7028;DHT22;3555;53.248;10.336;2023-04-07T14:33:09;13.50;1.00
7028;DHT22;3555;53.248;10.336;2023-04-07T14:35:36;13.60;1.00
7028;DHT22;3555;53.248;10.336;2023-04-07T14:38:03;13.60;1.00
7028;DHT22;3555;53.248;10.336;2023-04-07T14:40:30;13.10;1.00
7028;DHT22;3555;53.248;10.336;2023-04-07T14:42:57;12.90;1.00
7028;DHT22;3555;53.248;10.336;2023-04-07T14:45:26;12.60;1.00
7028;DHT22;3555;53.248;10.336;2023-04-07T14:47:52;12.60;1.00
7028;DHT22;3555;53.248;10.336;2023-04-07T14:50:20;12.30;1.00
7028;DHT22;3555;53.248;10.336;2023-04-07T14:52:48;12.20;1.00
7028;DHT22;3555;53.248;10.336;2023-04-07T14:55:15;12.20;1.00
7028;DHT22;3555;53.248;10.336;2023-04-07T14:57:42;11.90;1.00
7028;DHT22;3555;53.248;10.336;2023-04-07T15:00:10;11.80;1.00
7028;DHT22;3555;53.248;10.336;2023-04-07T15:02:38;11.50;1.00
7028;DHT22;3555;53.248;10.336;2023-04-07T15:05:06;11.60;1.00
7028;DHT22;3555;53.248;10.336;2023-04-07T15:07:33;11.30;1.00
7028;DHT22;3555;53.248;10.336;2023-04-07T15:10:00;11.10;1.00
7028;DHT22;3555;53.248;10.336;2023-04-07T15:12:27;11.10;1.00
7028;DHT22;3555;53.248;10.336;2023-04-07T15:14:56;11.20;1.00
7028;DHT22;3555;53.248;10.336;2023-04-07T15:17:23;11.20;1.00
7028;DHT22;3555;53.248;10.336;2023-04-07T15:19:51;11.20;1.00
7028;DHT22;3555;53.248;10.336;2023-04-07T15:22:18;11.40;1.00
7028;DHT22;3555;53.248;10.336;2023-04-07T15:24:45;11.40;1.00
7028;DHT22;3555;53.248;10.336;2023-04-07T15:27:12;11.60;1.00
7028;DHT22;3555;53.248;10.336;2023-04-07T15:29:39;11.50;1.00
7028;DHT22;3555;53.248;10.336;2023-04-07T15:32:07;11.20;1.00
7028;DHT22;3555;53.248;10.336;2023-04-07T15:34:33;11.10;1.00
7028;DHT22;3555;53.248;10.336;2023-04-07T15:37:02;10.80;1.00
7028;DHT22;3555;53.248;10.336;2023-04-07T15:39:29;10.80;1.00
7028;DHT22;3555;53.248;10.336;2023-04-07T15:41:56;10.90;1.00
7028;DHT22;3555;53.248;10.336;2023-04-07T15:44:22;10.90;1.00
7028;DHT22;3555;53.248;10.336;2023-04-07T15:46:49;10.80;1.00
7028;DHT22;3555;53.248;10.336;2023-04-07T15:49:18;10.90;1.00
7028;DHT22;3555;53.248;10.336;2023-04-07T15:51:46;10.70;1.00
7028;DHT22;3555;53.248;10.336;2023-04-07T15:54:15;10.60;1.00
7028;DHT22;3555;53.248;10.336;2023-04-07T15:56:42;10.70;1.00
7028;DHT22;3555;53.248;10.336;2023-04-07T15:59:08;10.20;96.50
7028;DHT22;3555;53.248;10.336;2023-04-07T16:01:35;10.20;99.90
7028;DHT22;3555;53.248;10.336;2023-04-07T16:04:03;10.10;99.90
7028;DHT22;3555;53.248;10.336;2023-04-07T16:06:30;10.20;99.90
7028;DHT22;3555;53.248;10.336;2023-04-07T16:08:57;10.00;99.90
7028;DHT22;3555;53.248;10.336;2023-04-07T16:11:25;9.80;99.90
7028;DHT22;3555;53.248;10.336;2023-04-07T16:13:52;9.90;99.90
7028;DHT22;3555;53.248;10.336;2023-04-07T16:16:19;9.90;99.90